Terminal Aerodrome Forecast
Issued by NWS

Home | Current Version | Previous Version | Text Only | Print | Product List | Glossary On
Versions: 1 2 3 4 5 6 7 8 9 10 11 12 13 14 15 16
000
FTUS43 KIND 172359 AAA
TAFLAF
TAF AMD
KLAF 172359Z 1800/1824 26011KT 4SM BR OVC009
     FM180800 28006KT 4SM BR BKN005
     FM181600 27006KT P6SM BKN008
     FM181800 26006KT P6SM BKN010
     FM182000 25006KT P6SM SCT015
      AMD LTD TO CLD VIS AND WIND 1802/1814=

USA.gov is the U.S. government's official web portal to all federal, state and local government web resources and services.